Taborton, New York
Current Conditions -  °F | °C
As of 8:06 PM on Tuesday 27 Jan 2015 (Local Time) from KAQW Reporting Station
Light Snow Light Snow  
Wind Chill: -8°   Ceiling: 2600
Heat Index:   Visibility: 2.5mi
Dew Point:   Wind: 13mph
Humidity: 73%   Direction: 240°WSW
Pressure: 29.78"   Gusts: 18mph
Location:  42.636°N, 73.4934°W
Report Text: KAQW 280106Z AUTO 24011G16KT 210V270 2 1/2SM -SN OVC026 M13/M17 A2978 RMK AO2 P0000 T11331172
Loading
Personal Weather Stations






























Interactive Weather Map New forecast layout! Learn more

10-Day Weather Forecast

Advertisements
Track Severe Weather on mobile